Lewisetta, VA NWLON current weather conditions

sailwx.info

Wind from 348 at 10 knots gusting 13

Air temperature 7.8° C
Water temperature 8.9° C

Last reported at 2016-Dec-07 09:42 UTC.
Time now 2016-Dec-07 10:31 UTC

Location: N 37°60' W 076°28'.
View on Google Maps.

See reports from other nearby stations

  
Tides and Currents Weather Stations Pressure Air Temp Water Temp Dewpoint Dewpoint Depression Visibility Wind Speed Wind Dir Waves Ship Positions
date/time (UTC)wind fromknots sea level pressurealtimeterstation pressurevisibilityair tempwater tempwave heightnotes
2016-Dec-07 09:42 348 10 gusting 13 7.8 8.9
2016-Dec-07 09:36 348 10 gusting 13 7.8 8.9
2016-Dec-07 09:30 349 10 gusting 14 7.8 8.9
2016-Dec-07 09:24 350 11 gusting 16 7.8 8.9
2016-Dec-07 09:18 352 9 gusting 15 7.8 8.9
2016-Dec-07 09:12 349 9 gusting 14 7.8 8.9
2016-Dec-07 09:06 351 7 gusting 12 7.8 8.9
2016-Dec-07 09:00 354 9 gusting 13 7.8 8.9
2016-Dec-07 08:54 350 8 gusting 12 7.8 8.9
2016-Dec-07 08:48 354 10 gusting 13 7.8 8.9
2016-Dec-07 08:42 356 10 gusting 13 7.8 8.9
2016-Dec-07 08:36 348 9 gusting 13 7.8 8.9
2016-Dec-07 08:30 351 9 gusting 13 7.8 8.9
2016-Dec-07 08:24 351 11 gusting 14 7.8 8.9
2016-Dec-07 08:18 349 10 gusting 13 7.8 8.9
2016-Dec-07 08:12 349 8 gusting 13 7.8 8.9
2016-Dec-07 08:06 350 8 gusting 11 7.8 8.9
2016-Dec-07 08:00 349 11 gusting 16 7.8 8.9
2016-Dec-07 07:54 350 11 gusting 16 7.8 8.9
2016-Dec-07 07:48 357 9 gusting 16 7.8 8.9
2016-Dec-07 07:42 360 10 gusting 17 7.8 8.9
2016-Dec-07 07:36 353 9 gusting 13 7.8 8.9
2016-Dec-07 07:30 354 10 gusting 14 7.8 8.9
2016-Dec-07 07:24 355 9 gusting 13 7.8 8.9
2016-Dec-07 07:18 355 6 gusting 11 7.8 8.9
2016-Dec-07 07:12 356 7 gusting 13 7.8 8.9
2016-Dec-07 07:06 358 11 gusting 16 7.8 8.9
2016-Dec-07 07:00 351 10 gusting 14 7.8 8.9
2016-Dec-07 06:54 349 10 gusting 14 7.8 8.9
2016-Dec-07 06:48 342 9 gusting 13 7.8 8.9
2016-Dec-07 06:42 344 7 gusting 10 7.8 8.9
2016-Dec-07 06:36 336 11 gusting 15 7.8 8.9
2016-Dec-07 06:30 334 10 gusting 13 7.8 8.9
2016-Dec-07 06:24 342 10 gusting 13 7.8 8.9
2016-Dec-07 06:18 343 10 gusting 15 7.8 8.9
2016-Dec-07 06:12 344 8 gusting 12 7.8 8.9
2016-Dec-07 06:06 342 9 gusting 12 7.8 8.9
2016-Dec-07 06:00 345 9 gusting 12 7.8 8.9
2016-Dec-07 05:54 348 10 gusting 15 8.3 8.9
2016-Dec-07 05:48 350 9 gusting 14 8.3 8.9
2016-Dec-07 05:42 347 11 gusting 16 8.3 8.9
2016-Dec-07 05:36 345 12 gusting 17 8.3 8.9
2016-Dec-07 05:30 344 11 gusting 15 8.3 8.9
2016-Dec-07 05:24 343 10 gusting 14 8.3 8.9
2016-Dec-07 05:18 346 11 gusting 17 8.3 8.9
2016-Dec-07 05:12 348 10 gusting 15 8.3 8.9
2016-Dec-07 05:06 346 10 gusting 13 8.3 8.9
2016-Dec-07 05:00 353 9 gusting 13 8.3 8.9
2016-Dec-07 04:54 353 9 gusting 13 8.3 8.9
2016-Dec-07 04:48 348 10 gusting 13 8.3 8.9
2016-Dec-07 04:42 351 9 gusting 12 8.3 8.9
2016-Dec-07 04:36 348 8 gusting 12 8.3 8.9
2016-Dec-07 04:30 349 8 gusting 12 8.3 8.9
2016-Dec-07 04:24 360 10 gusting 17 8.3 8.9
2016-Dec-07 04:18 359 9 gusting 13 8.3 8.9
2016-Dec-07 04:00 003 9 gusting 13 8.3 8.9
2016-Dec-07 03:54 004 9 gusting 13 8.3 8.9
2016-Dec-07 03:48 010 8 gusting 13 8.3 8.9
2016-Dec-07 03:42 012 11 gusting 15 8.3 8.9
2016-Dec-07 03:36 358 11 gusting 14 8.3 8.9
2016-Dec-07 03:30 356 9 gusting 13 8.3 8.9
2016-Dec-07 03:24 355 10 gusting 14 8.3 8.9
2016-Dec-07 03:18 352 12 gusting 15 8.3 8.9
2016-Dec-07 03:12 349 10 gusting 14 8.3 8.9
2016-Dec-07 03:06 350 12 gusting 16 8.3 8.9
2016-Dec-07 03:00 349 11 gusting 15 8.3 8.9
2016-Dec-07 02:42 355 13 gusting 19 8.3 8.9
2016-Dec-07 02:36 351 11 gusting 17 8.9 8.9
2016-Dec-07 02:30 352 11 gusting 17 8.9 8.9
2016-Dec-07 02:24 348 14 gusting 20 8.9 8.9
2016-Dec-07 02:18 350 11 gusting 17 8.9 8.9
2016-Dec-07 02:12 355 13 gusting 18 8.9 8.9
2016-Dec-07 02:06 353 11 gusting 17 8.9 8.9
2016-Dec-07 02:00 357 12 gusting 14 9.4 8.9
2016-Dec-07 01:54 357 12 gusting 14 9.4 8.9
2016-Dec-07 01:48 009 9 gusting 15 9.4 8.9
2016-Dec-07 00:30 049 13 gusting 17 8.9 8.9
2016-Dec-07 00:24 050 13 gusting 17 8.9 8.9
2016-Dec-07 00:18 035 9 gusting 14 8.9 8.9
2016-Dec-07 00:12 035 11 gusting 19 8.9 8.9
2016-Dec-07 00:06 037 10 gusting 15 8.9 8.9
2016-Dec-07 00:00 022 9 gusting 18 8.9 8.9
2016-Dec-06 23:48 012 13 gusting 19 8.9 8.9
2016-Dec-06 23:42 012 13 gusting 18 8.9 8.9
2016-Dec-06 23:36 027 15 gusting 22 8.3 8.9
2016-Dec-06 23:30 027 11 gusting 15 8.3 8.9
2016-Dec-06 23:24 016 13 gusting 19 8.3 8.9
2016-Dec-06 23:18 015 13 gusting 20 8.3 8.9
2016-Dec-06 23:12 014 14 gusting 22 8.3 8.9
2016-Dec-06 23:06 007 13 gusting 18 8.3 8.9
2016-Dec-06 23:00 003 13 gusting 19 8.9 8.9
2016-Dec-06 22:54 011 12 gusting 18 8.9 8.9
2016-Dec-06 22:48 018 11 gusting 15 8.9 8.9
2016-Dec-06 22:42 012 10 gusting 14 8.9 8.9
2016-Dec-06 22:36 013 10 gusting 14 8.9 8.9
2016-Dec-06 22:30 028 9 gusting 14 8.9 8.9
2016-Dec-06 22:24 037 10 gusting 16 8.9 8.9
2016-Dec-06 22:18 032 10 gusting 14 8.9 8.9
2016-Dec-06 22:12 030 11 gusting 15 8.9 8.9
2016-Dec-06 22:06 034 7 gusting 11 9.4 8.9
2016-Dec-06 22:00 047 10 gusting 13 9.4 8.9
2016-Dec-06 21:54 060 12 gusting 18 8.9 8.9
2016-Dec-06 21:48 050 10 gusting 14 8.9 8.9
2016-Dec-06 21:42 050 10 gusting 16 8.9 8.9
2016-Dec-06 21:36 061 11 gusting 15 8.9 8.9
2016-Dec-06 21:30 065 11 gusting 16 8.9 8.9
2016-Dec-06 21:24 066 12 gusting 16 8.9 8.9
2016-Dec-06 21:18 073 15 gusting 19 9.4 8.9
2016-Dec-06 21:12 076 14 gusting 19 9.4 8.9
2016-Dec-06 21:06 082 13 gusting 18 9.4 8.9
2016-Dec-06 21:00 079 13 gusting 18 9.4 8.9
2016-Dec-06 20:54 080 14 gusting 18 9.4 8.9
2016-Dec-06 20:48 082 14 gusting 19 9.4 8.9
2016-Dec-06 20:42 091 18 gusting 21 9.4 8.9
2016-Dec-06 20:36 092 16 gusting 20 9.4 8.9
2016-Dec-06 20:30 093 17 gusting 20 9.4 8.9
2016-Dec-06 20:24 095 16 gusting 20 9.4 8.9
2016-Dec-06 20:18 094 15 gusting 19 8.9 8.9
2016-Dec-06 20:12 093 16 gusting 19 8.9 8.9
2016-Dec-06 20:06 093 16 gusting 19 8.9 8.9
2016-Dec-06 20:00 091 19 gusting 21 8.9 8.9
2016-Dec-06 19:54 094 18 gusting 21 8.9 8.9
2016-Dec-06 19:48 090 18 gusting 21 8.9 8.9
2016-Dec-06 19:42 085 16 gusting 23 8.9 8.9
2016-Dec-06 19:36 086 16 gusting 21 8.9 8.9
2016-Dec-06 19:30 085 17 gusting 22 8.3 8.9
2016-Dec-06 19:24 086 17 gusting 22 8.3 8.9
2016-Dec-06 19:18 085 17 gusting 22 8.3 8.9
2016-Dec-06 19:12 086 18 gusting 22 8.3 8.9
2016-Dec-06 19:06 088 20 gusting 26 8.3 8.9
2016-Dec-06 19:00 082 17 gusting 24 8.3 8.9
2016-Dec-06 18:54 083 16 gusting 23 8.3 8.9
2016-Dec-06 18:48 085 19 gusting 23 8.3 8.9
2016-Dec-06 18:42 085 19 gusting 24 8.3 8.9
2016-Dec-06 18:36 083 14 gusting 20 8.3 8.9
2016-Dec-06 18:30 078 16 gusting 19 8.3 8.9
2016-Dec-06 18:24 077 16 gusting 20 7.8 8.9
2016-Dec-06 18:18 085 15 gusting 22 8.3 8.9
2016-Dec-06 18:12 086 15 gusting 22 8.3 8.9
2016-Dec-06 17:30 053 9 gusting 14 7.2 8.9
2016-Dec-06 17:24 053 9 gusting 14 7.2 8.9
2016-Dec-06 17:18 053 8 gusting 13 7.2 8.9
2016-Dec-06 17:12 050 7 gusting 11 7.2 8.9
2016-Dec-06 17:06 044 8 gusting 12 7.2 8.9
2016-Dec-06 17:00 042 7 gusting 12 7.2 8.9
2016-Dec-06 16:54 041 6 gusting 9 7.2 8.9
2016-Dec-06 16:48 050 7 gusting 11 7.8 8.9
2016-Dec-06 16:42 057 6 gusting 11 7.8 8.9
2016-Dec-06 16:36 067 10 gusting 13 7.8 8.9
2016-Dec-06 16:30 077 11 gusting 14 7.8 8.9
2016-Dec-06 16:24 079 12 gusting 15 7.8 8.9
2016-Dec-06 16:18 085 13 gusting 16 7.8 8.9
2016-Dec-06 16:12 085 12 gusting 15 8.3 8.9
2016-Dec-06 16:06 093 13 gusting 16 8.3 8.9
2016-Dec-06 16:00 095 13 gusting 15 7.8 8.9
2016-Dec-06 15:54 089 13 gusting 16 7.8 8.9
2016-Dec-06 15:48 089 13 gusting 15 7.8 8.9
2016-Dec-06 15:42 089 14 gusting 17 7.8 8.9
2016-Dec-06 15:36 087 13 gusting 18 7.8 8.9
2016-Dec-06 15:30 090 15 gusting 19 7.8 8.9
2016-Dec-06 15:24 092 15 gusting 18 7.8 8.9
2016-Dec-06 15:18 086 16 gusting 20 7.8 8.9
2016-Dec-06 15:12 092 16 gusting 19 7.8 8.9
2016-Dec-06 15:06 093 15 gusting 18 7.8 8.9
2016-Dec-06 15:00 088 15 gusting 17 7.8 8.9
2016-Dec-06 14:54 093 14 gusting 18 7.8 8.9
2016-Dec-06 14:48 089 16 gusting 19 7.8 8.9
2016-Dec-06 14:42 088 14 gusting 18 7.8 8.9
2016-Dec-06 14:36 086 15 gusting 19 7.8 8.9
2016-Dec-06 14:30 090 16 gusting 18 7.8 8.9
2016-Dec-06 14:24 090 13 gusting 15 7.8 8.9
2016-Dec-06 14:18 092 14 gusting 16 7.8 8.9
2016-Dec-06 14:12 091 13 gusting 16 7.8 8.9
2016-Dec-06 14:06 093 14 gusting 16 7.8 8.9
2016-Dec-06 14:00 089 13 gusting 14 7.8 8.9
2016-Dec-06 13:54 085 13 gusting 16 7.8 8.9
2016-Dec-06 13:48 089 13 gusting 16 7.8 8.9
2016-Dec-06 13:42 086 13 gusting 16 7.8 8.9
2016-Dec-06 13:36 080 11 gusting 14 7.8 8.9
2016-Dec-06 13:30 081 11 gusting 15 7.8 8.9
2016-Dec-06 13:24 082 11 gusting 16 7.8 8.9
2016-Dec-06 13:18 085 13 gusting 16 7.8 8.9
2016-Dec-06 13:12 086 14 gusting 18 7.8 9.4
2016-Dec-06 13:06 083 12 gusting 16 7.8 8.9
2016-Dec-06 13:00 087 14 gusting 17 7.8 8.9
2016-Dec-06 12:54 086 13 gusting 16 7.8 8.9
2016-Dec-06 12:48 089 15 gusting 18 7.8 8.9
2016-Dec-06 12:42 087 14 gusting 19 7.8 8.9
2016-Dec-06 12:36 090 14 gusting 16 7.8 8.9
2016-Dec-06 12:30 086 13 gusting 16 7.8 8.9
2016-Dec-06 12:24 100 14 gusting 16 7.8 8.9
2016-Dec-06 12:18 087 14 gusting 18 7.8 8.9
2016-Dec-06 12:12 087 13 gusting 17 7.8 8.9
2016-Dec-06 12:06 096 15 gusting 17 7.8 8.9
2016-Dec-06 12:00 089 13 gusting 15 7.8 8.9
2016-Dec-06 11:54 093 14 gusting 16 7.8 8.9
2016-Dec-06 11:48 099 13 gusting 14 7.8 8.9
2016-Dec-06 11:42 094 13 gusting 16 7.8 9.4
2016-Dec-06 11:36 100 14 gusting 17 7.8 9.4
2016-Dec-06 11:30 090 14 gusting 16 7.8 9.4
2016-Dec-06 11:24 091 13 gusting 15 7.8 9.4
2016-Dec-06 11:18 088 13 gusting 16 7.8 9.4
2016-Dec-06 11:12 091 13 gusting 17 7.8 9.4
2016-Dec-06 11:06 088 13 gusting 16 7.8 8.9
2016-Dec-06 11:00 083 13 gusting 16 7.8 8.9
2016-Dec-06 10:54 088 12 gusting 14 7.8 8.9
2016-Dec-06 10:48 082 11 gusting 15 7.8 9.4
2016-Dec-06 10:42 083 11 gusting 14 7.8 9.4
2016-Dec-06 10:36 081 11 gusting 13 7.8 9.4
2016-Dec-06 10:30 085 11 gusting 13 7.8 9.4
2016-Dec-06 10:24 083 10 gusting 12 7.8 9.4
2016-Dec-06 10:18 070 9 gusting 11 7.8 9.4
2016-Dec-06 10:12 080 8 gusting 12 7.8 9.4
2016-Dec-06 10:06 082 9 gusting 11 7.8 9.4
2016-Dec-06 10:00 078 9 gusting 12 7.8 9.4
2016-Dec-06 09:54 078 9 gusting 12 7.8 9.4
2016-Dec-06 09:48 079 10 gusting 13 7.8 9.4
2016-Dec-06 09:42 083 10 gusting 13 7.8 9.4
2016-Dec-06 09:36 084 10 gusting 13 7.8 9.4
2016-Dec-06 09:30 078 10 gusting 14 7.8 9.4
2016-Dec-06 09:24 080 8 gusting 13 7.8 9.4
2016-Dec-06 09:18 083 10 gusting 13 7.8 9.4
2016-Dec-06 09:12 082 9 gusting 14 7.8 9.4
2016-Dec-06 09:06 080 9 gusting 11 7.8 9.4
2016-Dec-06 09:00 082 9 gusting 11 7.8 9.4
2016-Dec-06 08:54 078 8 gusting 10 7.8 9.4
2016-Dec-06 08:48 084 7 gusting 10 7.8 9.4
2016-Dec-06 08:42 074 9 gusting 12 7.8 9.4
2016-Dec-06 08:36 063 6 gusting 8 7.8 9.4
2016-Dec-06 08:30 052 6 gusting 8 7.8 9.4
2016-Dec-06 08:24 050 5 gusting 9 7.8 9.4
2016-Dec-06 08:18 058 6 gusting 10 7.8 9.4
2016-Dec-06 08:12 062 6 gusting 10 7.8 9.4
2016-Dec-06 08:06 055 6 gusting 12 7.8 9.4
2016-Dec-06 08:00 063 7 gusting 11 7.8 9.4
2016-Dec-06 07:54 059 7 gusting 11 7.8 9.4
2016-Dec-06 07:48 065 7 gusting 11 7.8 9.4
2016-Dec-06 07:42 063 7 gusting 10 7.8 9.4
2016-Dec-06 07:36 064 7 gusting 10 7.8 9.4
2016-Dec-06 07:30 062 9 gusting 13 7.8 9.4
2016-Dec-06 07:24 065 9 gusting 13 8.3 8.9
2016-Dec-06 07:18 066 9 gusting 13 8.3 8.9
2016-Dec-06 07:12 060 6 gusting 11 8.3 8.9
2016-Dec-06 07:06 065 8 gusting 11 8.3 8.9
2016-Dec-06 07:00 071 10 gusting 13 8.3 8.9
2016-Dec-06 06:54 065 8 gusting 12 8.3 8.9
2016-Dec-06 06:48 065 9 gusting 13 8.3 8.9
2016-Dec-06 06:42 062 9 gusting 13 8.3 8.9
2016-Dec-06 06:36 065 9 gusting 13 8.3 8.9
2016-Dec-06 06:30 065 7 gusting 11 8.3 8.9
2016-Dec-06 06:24 067 9 gusting 13 8.3 8.9
2016-Dec-06 06:18 065 7 gusting 10 8.3 8.9
2016-Dec-06 06:12 066 8 gusting 12 8.3 8.9
2016-Dec-06 06:06 063 7 gusting 10 8.3 8.9
2016-Dec-06 06:00 054 5 gusting 8 8.3 8.9
2016-Dec-06 05:54 050 6 gusting 10 8.3 8.9
2016-Dec-06 05:48 042 6 gusting 10 8.3 8.9
2016-Dec-06 05:42 036 4 gusting 6 8.3 8.9
2016-Dec-06 05:36 033 4 gusting 6 8.9 8.9
2016-Dec-06 05:30 036 4 gusting 6 8.9 8.9
2016-Dec-06 05:24 031 4 gusting 6 8.3 8.9
2016-Dec-06 05:18 009 3 gusting 6 8.3 8.9
2016-Dec-06 05:12 357 2 gusting 3 7.8 8.9
2016-Dec-06 05:06 358 3 gusting 3 7.8 8.9
2016-Dec-06 05:00 354 1 gusting 2 7.2 8.9
2016-Dec-06 04:54 329 1 gusting 2 7.2 8.9
2016-Dec-06 04:48 329 1 gusting 1 7.8 9.4
2016-Dec-06 04:42 351 2 gusting 2 7.8 9.4
2016-Dec-06 04:36 001 3 gusting 4 7.8 9.4
2016-Dec-06 04:30 001 2 gusting 3 7.2 9.4
2016-Dec-06 04:24 348 1 gusting 2 7.2 9.4
2016-Dec-06 04:18 346 2 gusting 2 7.2 9.4
2016-Dec-06 04:12 328 2 gusting 2 7.2 9.4
2016-Dec-06 04:06 322 2 gusting 2 7.2 9.4
2016-Dec-06 04:00 319 2 gusting 3 7.2 9.4
2016-Dec-06 03:54 322 3 gusting 3 7.2 9.4
2016-Dec-06 03:48 327 2 gusting 3 6.7 9.4
2016-Dec-06 03:42 274 4 gusting 5 6.7 9.4
2016-Dec-06 03:36 259 4 gusting 5 6.7 9.4
2016-Dec-06 03:30 265 3 gusting 3 7.2 9.4
2016-Dec-06 03:24 281 1 gusting 2 7.2 9.4
2016-Dec-06 03:18 283 3 gusting 3 7.2 9.4
2016-Dec-06 03:12 273 4 gusting 4 7.2 9.4
2016-Dec-06 03:06 259 4 gusting 5 7.2 9.4
2016-Dec-06 03:00 238 3 gusting 4 7.8 9.4
2016-Dec-06 02:54 286 2 gusting 2 7.8 9.4
2016-Dec-06 02:48 309 1 gusting 1 7.8 9.4
2016-Dec-06 02:42 344 0 gusting 1 7.8 9.4
2016-Dec-06 02:36 014 1 gusting 1 7.8 9.4
2016-Dec-06 02:30 046 1 gusting 1 7.2 9.4
2016-Dec-06 02:24 072 0 gusting 0 7.2 9.4
2016-Dec-06 02:18 005 0 gusting 1 7.2 9.4
2016-Dec-06 02:12 293 7.2 9.4
2016-Dec-06 02:06 317 0 gusting 0 7.2 9.4
2016-Dec-06 02:00 319 0 gusting 0 7.2 9.4
2016-Dec-06 01:54 316 0 gusting 1 7.2 9.4
2016-Dec-06 01:48 329 1 gusting 1 7.2 9.4
2016-Dec-06 01:42 290 1 gusting 1 7.2 9.4
2016-Dec-06 01:36 301 1 gusting 1 7.2 9.4
2016-Dec-06 01:30 273 1 gusting 2 7.2 9.4
2016-Dec-06 01:24 274 2 gusting 3 7.2 9.4
2016-Dec-06 01:18 250 2 gusting 3 7.2 9.4
2016-Dec-06 01:12 279 2 gusting 2 7.2 9.4
2016-Dec-06 01:06 265 4 gusting 5 7.2 9.4
2016-Dec-06 01:00 261 6 gusting 6 7.2 9.4
2016-Dec-06 00:54 237 4 gusting 5 7.2 9.4
2016-Dec-06 00:48 256 5 gusting 5 7.2 9.4
2016-Dec-06 00:42 294 2 gusting 2 7.2 9.4
2016-Dec-06 00:36 299 1 gusting 1 7.2 9.4
2016-Dec-06 00:30 311 2 gusting 3 7.2 9.4
2016-Dec-06 00:24 311 2 gusting 2 7.2 9.4
2016-Dec-06 00:18 323 1 gusting 1 7.2 9.4
2016-Dec-06 00:12 309 2 gusting 2 7.2 9.4
2016-Dec-06 00:06 252 4 gusting 4 7.2 9.4
2016-Dec-06 00:00 221 3 gusting 3 7.2 9.4
2016-Dec-05 23:54 239 0 gusting 1 7.2 9.4
2016-Dec-05 23:48 299 1 gusting 1 7.2 9.4
2016-Dec-05 23:42 300 1 gusting 1 7.8 9.4
2016-Dec-05 23:36 295 2 gusting 3 7.8 9.4
2016-Dec-05 23:30 246 2 gusting 2 7.8 9.4
2016-Dec-05 23:24 274 1 gusting 1 7.8 9.4
2016-Dec-05 23:18 002 7.8 9.4
2016-Dec-05 23:12 003 2 gusting 2 7.8 9.4
2016-Dec-05 23:06 280 0 gusting 0 8.3 9.4
2016-Dec-05 23:00 312 1 gusting 1 8.3 9.4
2016-Dec-05 22:54 093 8.3 9.4
2016-Dec-05 22:48 103 8.3 9.4
2016-Dec-05 22:42 112 1 gusting 2 8.9 9.4
2016-Dec-05 22:36 118 3 gusting 4 8.9 9.4
2016-Dec-05 22:30 103 4 gusting 5 8.9 9.4
2016-Dec-05 22:24 106 4 gusting 5 8.3 9.4
2016-Dec-05 22:18 118 5 gusting 6 8.3 9.4
2016-Dec-05 22:12 120 5 gusting 6 8.3 9.4
2016-Dec-05 22:06 132 2 gusting 3 8.3 9.4
2016-Dec-05 22:00 156 3 gusting 3 8.3 9.4
2016-Dec-05 21:54 163 3 gusting 3 8.3 9.4
2016-Dec-05 21:48 170 3 gusting 3 8.9 9.4
2016-Dec-05 21:42 160 3 gusting 4 8.9 9.4
2016-Dec-05 21:36 142 4 gusting 5 8.9 9.4
2016-Dec-05 21:30 156 2 gusting 4 8.9 9.4
2016-Dec-05 21:24 140 4 gusting 5 9.4 9.4
2016-Dec-05 21:18 129 2 gusting 3 9.4 8.9
2016-Dec-05 21:12 065 0 gusting 0 10.0 8.9
2016-Dec-05 21:06 015 1 gusting 1 10.0 9.4
2016-Dec-05 21:00 029 1 gusting 2 10.0 9.4
2016-Dec-05 20:54 026 2 gusting 3 10.0 9.4
2016-Dec-05 20:48 038 1 gusting 2 10.6 9.4
2016-Dec-05 20:42 002 1 gusting 2 10.6 9.4
2016-Dec-05 20:36 351 2 gusting 3 10.6 9.4
2016-Dec-05 20:30 341 2 gusting 2 10.6 9.4
2016-Dec-05 20:24 332 3 gusting 3 10.6 9.4
2016-Dec-05 20:18 332 4 gusting 5 10.6 9.4
2016-Dec-05 20:12 340 3 gusting 4 10.6 9.4
2016-Dec-05 20:06 327 4 gusting 5 10.6 9.4
2016-Dec-05 20:00 353 5 gusting 6 10.6 9.4
2016-Dec-05 19:54 008 4 gusting 6 10.6 8.9
2016-Dec-05 19:48 354 5 gusting 6 10.6 8.9
2016-Dec-05 19:42 001 5 gusting 7 10.6 9.4
2016-Dec-05 19:36 358 4 gusting 7 10.6 8.9
2016-Dec-05 19:30 343 6 gusting 7 10.0 8.9
2016-Dec-05 19:24 004 6 gusting 7 10.0 8.9
2016-Dec-05 19:18 359 6 gusting 7 10.0 8.9
2016-Dec-05 19:12 002 6 gusting 6 10.0 9.4
2016-Dec-05 19:06 002 4 gusting 6 10.0 8.9
2016-Dec-05 19:00 014 5 gusting 6 10.0 9.4
2016-Dec-05 18:54 009 5 gusting 7 10.6 9.4
2016-Dec-05 18:48 348 6 gusting 7 10.6 9.4
2016-Dec-05 18:42 342 2 gusting 5 10.6 9.4
2016-Dec-05 18:36 010 2 gusting 4 10.6 9.4
2016-Dec-05 18:30 353 4 gusting 5 10.0 9.4
2016-Dec-05 18:24 354 4 gusting 6 10.0 9.4
2016-Dec-05 18:18 356 2 gusting 3 9.4 9.4
2016-Dec-05 18:12 343 3 gusting 5 9.4 9.4
2016-Dec-05 18:06 345 3 gusting 4 8.9 9.4
2016-Dec-05 18:00 337 6 gusting 9 8.9 9.4
2016-Dec-05 17:54 348 7 gusting 10 8.9 9.4
2016-Dec-05 17:48 357 7 gusting 11 8.9 9.4
2016-Dec-05 17:42 347 6 gusting 9 8.9 9.4
2016-Dec-05 17:36 350 6 gusting 8 8.9 9.4
2016-Dec-05 17:30 353 5 gusting 6 8.9 9.4
2016-Dec-05 17:24 002 4 gusting 6 8.3 9.4
2016-Dec-05 17:18 347 6 gusting 8 8.3 9.4
2016-Dec-05 17:12 325 6 gusting 8 7.8 8.9
2016-Dec-05 17:06 321 3 gusting 5 7.8 8.9
2016-Dec-05 17:00 340 6 gusting 9 7.8 8.9
2016-Dec-05 16:54 309 6 gusting 7 7.8 8.9
2016-Dec-05 16:48 307 7 gusting 9 7.8 8.9
2016-Dec-05 16:42 302 6 gusting 9 7.8 8.9
2016-Dec-05 16:36 337 5 gusting 6 7.8 8.9
2016-Dec-05 16:30 312 8 gusting 9 7.2 8.9
2016-Dec-05 16:24 323 7 gusting 9 7.2 8.9
2016-Dec-05 16:18 313 7 gusting 8 7.2 8.9
2016-Dec-05 16:12 320 4 gusting 6 7.8 8.9
2016-Dec-05 16:06 335 4 gusting 5 7.2 8.9
2016-Dec-05 16:00 009 1 gusting 3 7.2 8.9
2016-Dec-05 15:54 334 5 gusting 6 7.2 8.9
2016-Dec-05 15:48 319 6 gusting 7 6.7 8.9
2016-Dec-05 15:42 336 6 gusting 8 6.7 8.9
2016-Dec-05 15:36 333 6 gusting 7 6.7 8.9
2016-Dec-05 15:30 321 5 gusting 6 6.7 8.9
2016-Dec-05 15:18 331 6 gusting 6 6.1 8.9
2016-Dec-05 15:12 331 6 gusting 7 6.7 8.9
2016-Dec-05 15:06 326 3 gusting 4 6.1 8.9
2016-Dec-05 15:00 320 3 gusting 5 6.1 8.9
2016-Dec-05 14:54 317 4 gusting 6 6.1 8.9
2016-Dec-05 14:48 315 4 gusting 5 6.1 8.9
2016-Dec-05 14:42 329 3 gusting 5 5.6 8.9
2016-Dec-05 14:36 317 4 gusting 6 6.1 8.9
2016-Dec-05 14:30 325 5 gusting 6 6.1 8.9
2016-Dec-05 14:24 338 5 gusting 7 6.1 8.9
2016-Dec-05 14:18 322 5 gusting 6 5.6 8.9
2016-Dec-05 14:12 339 6 gusting 7 5.6 8.9
2016-Dec-05 14:06 325 6 gusting 7 5.6 8.9
2016-Dec-05 14:00 330 6 gusting 7 5.6 8.9
2016-Dec-05 13:54 291 4 gusting 5 5.6 8.9
2016-Dec-05 13:48 300 6 gusting 6 5.6 8.9
2016-Dec-05 13:42 317 5 gusting 6 5.6 8.9
2016-Dec-05 13:36 304 4 gusting 6 5.6 8.9
2016-Dec-05 13:30 286 3 gusting 5 5.6 8.9
2016-Dec-05 13:24 292 4 gusting 6 5.6 8.9
2016-Dec-05 13:18 312 6 gusting 7 5.6 8.9
2016-Dec-05 13:12 296 5 gusting 5 5.6 8.9
2016-Dec-05 13:06 307 5 gusting 6 5.6 8.9
2016-Dec-05 13:00 312 6 gusting 6 5.6 8.9
2016-Dec-05 12:54 291 4 gusting 6 5.6 8.9
2016-Dec-05 12:48 295 5 gusting 6 5.6 8.9
2016-Dec-05 12:42 296 5 gusting 6 5.6 8.9
2016-Dec-05 12:36 294 5 gusting 6 5.6 8.9
2016-Dec-05 12:30 314 5 gusting 6 5.6 8.9
2016-Dec-05 12:24 326 3 gusting 5 5.6 8.9
2016-Dec-05 12:18 305 3 gusting 3 5.6 8.9
2016-Dec-05 12:12 317 3 gusting 3 6.1 8.9
2016-Dec-05 12:06 289 2 gusting 3 6.1 8.9
2016-Dec-05 12:00 268 1 gusting 2 6.1 8.9
2016-Dec-05 11:54 241 2 gusting 3 6.1 8.9
2016-Dec-05 11:48 227 3 gusting 4 6.1 8.9
2016-Dec-05 11:42 215 4 gusting 5 6.1 8.9
2016-Dec-05 11:36 205 3 gusting 4 6.1 8.9
2016-Dec-05 11:30 195 3 gusting 3 6.1 8.9
2016-Dec-05 11:24 195 3 gusting 5 6.1 8.9
2016-Dec-05 11:18 195 5 gusting 6 6.1 8.9
2016-Dec-05 11:12 200 5 gusting 6 6.1 8.9
2016-Dec-05 11:06 199 4 gusting 5 6.1 8.9
2016-Dec-05 11:00 220 4 gusting 5 6.1 8.9
2016-Dec-05 10:54 221 2 gusting 2 6.1 8.9
2016-Dec-05 10:48 203 2 gusting 3 6.1 8.9
2016-Dec-05 10:42 305 2 gusting 3 5.6 8.9
2016-Dec-05 10:36 300 2 gusting 4 5.6 8.9
2016-Dec-05 10:30 278 1 gusting 3 6.1 8.9
2016-Dec-05 10:24 294 3 gusting 4 6.1 8.9
2016-Dec-05 10:18 302 2 gusting 3 6.1 8.9
2016-Dec-05 10:12 277 2 gusting 2 6.1 8.9
2016-Dec-05 10:06 291 3 gusting 4 6.1 8.9
2016-Dec-05 10:00 258 3 gusting 4 6.1 8.9